sensor_id;sensor_type;location;lat;lon;timestamp;P1;durP1;ratioP1;P2;durP2;ratioP2
72864;SDS011;61000;48.120;11.548;2023-03-21T00:00:30;5.45;;;2.92;;
72864;SDS011;61000;48.120;11.548;2023-03-21T00:02:59;3.85;;;3.08;;
72864;SDS011;61000;48.120;11.548;2023-03-21T00:05:25;3.22;;;2.92;;
72864;SDS011;61000;48.120;11.548;2023-03-21T00:07:52;2.80;;;2.60;;
72864;SDS011;61000;48.120;11.548;2023-03-21T00:10:20;4.70;;;3.60;;
72864;SDS011;61000;48.120;11.548;2023-03-21T00:12:47;3.85;;;3.20;;
72864;SDS011;61000;48.120;11.548;2023-03-21T00:15:19;3.28;;;2.97;;
72864;SDS011;61000;48.120;11.548;2023-03-21T00:17:48;3.20;;;3.00;;
72864;SDS011;61000;48.120;11.548;2023-03-21T00:20:15;4.78;;;3.28;;
72864;SDS011;61000;48.120;11.548;2023-03-21T00:22:42;4.05;;;3.45;;
72864;SDS011;61000;48.120;11.548;2023-03-21T00:25:09;4.28;;;3.45;;
72864;SDS011;61000;48.120;11.548;2023-03-21T00:27:36;4.63;;;3.10;;
72864;SDS011;61000;48.120;11.548;2023-03-21T00:30:03;4.85;;;4.10;;
72864;SDS011;61000;48.120;11.548;2023-03-21T00:32:31;6.15;;;3.78;;
72864;SDS011;61000;48.120;11.548;2023-03-21T00:34:59;5.65;;;3.50;;
72864;SDS011;61000;48.120;11.548;2023-03-21T00:37:26;4.25;;;3.70;;
72864;SDS011;61000;48.120;11.548;2023-03-21T00:39:53;5.03;;;3.58;;
72864;SDS011;61000;48.120;11.548;2023-03-21T00:42:20;3.72;;;3.38;;
72864;SDS011;61000;48.120;11.548;2023-03-21T00:44:47;4.45;;;3.70;;
72864;SDS011;61000;48.120;11.548;2023-03-21T00:47:14;4.60;;;3.70;;
72864;SDS011;61000;48.120;11.548;2023-03-21T00:49:41;4.55;;;3.72;;
72864;SDS011;61000;48.120;11.548;2023-03-21T00:52:09;4.65;;;3.72;;
72864;SDS011;61000;48.120;11.548;2023-03-21T00:54:36;4.55;;;3.72;;
72864;SDS011;61000;48.120;11.548;2023-03-21T00:57:03;4.45;;;3.90;;
72864;SDS011;61000;48.120;11.548;2023-03-21T00:59:30;4.85;;;3.78;;
72864;SDS011;61000;48.120;11.548;2023-03-21T01:01:57;5.13;;;3.58;;
72864;SDS011;61000;48.120;11.548;2023-03-21T01:04:25;3.95;;;3.47;;
72864;SDS011;61000;48.120;11.548;2023-03-21T01:06:53;5.70;;;3.80;;
72864;SDS011;61000;48.120;11.548;2023-03-21T01:09:22;4.40;;;3.75;;
72864;SDS011;61000;48.120;11.548;2023-03-21T01:11:50;6.25;;;4.22;;
72864;SDS011;61000;48.120;11.548;2023-03-21T01:14:18;8.30;;;4.20;;
72864;SDS011;61000;48.120;11.548;2023-03-21T01:16:47;8.02;;;5.00;;
72864;SDS011;61000;48.120;11.548;2023-03-21T01:19:16;6.28;;;4.70;;
72864;SDS011;61000;48.120;11.548;2023-03-21T01:21:45;8.95;;;5.30;;
72864;SDS011;61000;48.120;11.548;2023-03-21T01:24:12;34.50;;;13.38;;
72864;SDS011;61000;48.120;11.548;2023-03-21T01:26:41;34.38;;;13.45;;
72864;SDS011;61000;48.120;11.548;2023-03-21T01:29:08;18.35;;;8.65;;
72864;SDS011;61000;48.120;11.548;2023-03-21T01:31:35;18.08;;;8.57;;
72864;SDS011;61000;48.120;11.548;2023-03-21T01:34:02;14.38;;;7.60;;
72864;SDS011;61000;48.120;11.548;2023-03-21T01:36:29;14.13;;;6.03;;
72864;SDS011;61000;48.120;11.548;2023-03-21T01:39:02;11.13;;;5.15;;
72864;SDS011;61000;48.120;11.548;2023-03-21T01:41:31;11.23;;;6.72;;
72864;SDS011;61000;48.120;11.548;2023-03-21T01:44:01;12.50;;;5.63;;
72864;SDS011;61000;48.120;11.548;2023-03-21T01:46:38;13.10;;;7.63;;
72864;SDS011;61000;48.120;11.548;2023-03-21T01:49:29;11.02;;;6.85;;
72864;SDS011;61000;48.120;11.548;2023-03-21T01:52:20;11.00;;;5.80;;
72864;SDS011;61000;48.120;11.548;2023-03-21T01:54:50;7.15;;;4.72;;
72864;SDS011;61000;48.120;11.548;2023-03-21T01:57:20;13.30;;;4.55;;
72864;SDS011;61000;48.120;11.548;2023-03-21T01:59:53;8.18;;;4.63;;
72864;SDS011;61000;48.120;11.548;2023-03-21T02:02:39;6.95;;;4.80;;
72864;SDS011;61000;48.120;11.548;2023-03-21T02:05:36;6.13;;;3.72;;
72864;SDS011;61000;48.120;11.548;2023-03-21T02:08:07;6.20;;;4.13;;
72864;SDS011;61000;48.120;11.548;2023-03-21T02:10:34;6.63;;;4.10;;
72864;SDS011;61000;48.120;11.548;2023-03-21T02:13:03;5.45;;;4.03;;
72864;SDS011;61000;48.120;11.548;2023-03-21T02:15:37;6.30;;;3.38;;
72864;SDS011;61000;48.120;11.548;2023-03-21T02:18:21;5.07;;;4.47;;
72864;SDS011;61000;48.120;11.548;2023-03-21T02:20:55;4.85;;;4.03;;
72864;SDS011;61000;48.120;11.548;2023-03-21T02:27:12;4.15;;;3.75;;
72864;SDS011;61000;48.120;11.548;2023-03-21T02:29:51;3.67;;;3.33;;
72864;SDS011;61000;48.120;11.548;2023-03-21T02:32:43;4.30;;;3.75;;
72864;SDS011;61000;48.120;11.548;2023-03-21T02:35:39;3.92;;;3.42;;
72864;SDS011;61000;48.120;11.548;2023-03-21T02:38:21;3.50;;;3.22;;
72864;SDS011;61000;48.120;11.548;2023-03-21T02:40:55;4.43;;;3.50;;
72864;SDS011;61000;48.120;11.548;2023-03-21T02:43:29;6.10;;;3.40;;
72864;SDS011;61000;48.120;11.548;2023-03-21T02:46:04;7.97;;;4.80;;
72864;SDS011;61000;48.120;11.548;2023-03-21T02:48:36;3.97;;;3.63;;
72864;SDS011;61000;48.120;11.548;2023-03-21T02:51:05;4.82;;;4.28;;
72864;SDS011;61000;48.120;11.548;2023-03-21T02:53:37;4.28;;;3.83;;
72864;SDS011;61000;48.120;11.548;2023-03-21T02:56:08;4.28;;;3.75;;
72864;SDS011;61000;48.120;11.548;2023-03-21T02:58:39;6.18;;;4.13;;
72864;SDS011;61000;48.120;11.548;2023-03-21T03:01:07;5.15;;;3.80;;
72864;SDS011;61000;48.120;11.548;2023-03-21T03:03:43;3.75;;;3.28;;
72864;SDS011;61000;48.120;11.548;2023-03-21T03:06:12;6.28;;;3.75;;
72864;SDS011;61000;48.120;11.548;2023-03-21T03:08:48;4.20;;;3.80;;
72864;SDS011;61000;48.120;11.548;2023-03-21T03:11:28;4.00;;;3.60;;
72864;SDS011;61000;48.120;11.548;2023-03-21T03:14:03;4.30;;;3.90;;
72864;SDS011;61000;48.120;11.548;2023-03-21T03:16:38;5.78;;;3.85;;
72864;SDS011;61000;48.120;11.548;2023-03-21T03:19:12;4.32;;;3.92;;
72864;SDS011;61000;48.120;11.548;2023-03-21T03:21:49;4.68;;;3.63;;
72864;SDS011;61000;48.120;11.548;2023-03-21T03:24:24;4.22;;;3.63;;
72864;SDS011;61000;48.120;11.548;2023-03-21T03:26:57;4.95;;;4.28;;
72864;SDS011;61000;48.120;11.548;2023-03-21T03:29:27;3.45;;;3.05;;
72864;SDS011;61000;48.120;11.548;2023-03-21T03:31:56;4.32;;;3.90;;
72864;SDS011;61000;48.120;11.548;2023-03-21T03:34:31;4.18;;;3.78;;
72864;SDS011;61000;48.120;11.548;2023-03-21T03:37:05;5.38;;;3.80;;
72864;SDS011;61000;48.120;11.548;2023-03-21T03:39:36;3.67;;;3.38;;
72864;SDS011;61000;48.120;11.548;2023-03-21T03:42:12;4.95;;;3.85;;
72864;SDS011;61000;48.120;11.548;2023-03-21T03:44:43;6.03;;;4.50;;
72864;SDS011;61000;48.120;11.548;2023-03-21T03:47:11;5.43;;;4.53;;
72864;SDS011;61000;48.120;11.548;2023-03-21T03:49:46;4.47;;;4.07;;
72864;SDS011;61000;48.120;11.548;2023-03-21T03:52:19;9.15;;;4.40;;
72864;SDS011;61000;48.120;11.548;2023-03-21T03:54:58;5.22;;;4.13;;
72864;SDS011;61000;48.120;11.548;2023-03-21T03:57:28;3.90;;;3.50;;
72864;SDS011;61000;48.120;11.548;2023-03-21T03:59:55;4.78;;;3.83;;
72864;SDS011;61000;48.120;11.548;2023-03-21T04:02:43;5.50;;;4.20;;
72864;SDS011;61000;48.120;11.548;2023-03-21T04:05:14;4.32;;;3.78;;
72864;SDS011;61000;48.120;11.548;2023-03-21T04:07:45;5.00;;;4.30;;
72864;SDS011;61000;48.120;11.548;2023-03-21T04:10:14;5.35;;;4.35;;
72864;SDS011;61000;48.120;11.548;2023-03-21T04:12:42;9.23;;;4.00;;
72864;SDS011;61000;48.120;11.548;2023-03-21T04:15:18;4.50;;;3.95;;
72864;SDS011;61000;48.120;11.548;2023-03-21T04:17:50;7.22;;;4.18;;
72864;SDS011;61000;48.120;11.548;2023-03-21T04:20:17;5.63;;;3.67;;
72864;SDS011;61000;48.120;11.548;2023-03-21T04:22:44;4.82;;;4.30;;
72864;SDS011;61000;48.120;11.548;2023-03-21T04:25:12;7.25;;;4.50;;
72864;SDS011;61000;48.120;11.548;2023-03-21T04:27:41;5.50;;;4.43;;
72864;SDS011;61000;48.120;11.548;2023-03-21T04:30:39;5.85;;;4.43;;
72864;SDS011;61000;48.120;11.548;2023-03-21T04:33:10;4.30;;;3.83;;
72864;SDS011;61000;48.120;11.548;2023-03-21T04:35:39;6.68;;;4.15;;
72864;SDS011;61000;48.120;11.548;2023-03-21T04:38:07;5.70;;;4.30;;
72864;SDS011;61000;48.120;11.548;2023-03-21T04:40:35;4.90;;;4.35;;
72864;SDS011;61000;48.120;11.548;2023-03-21T04:43:02;5.57;;;4.38;;
72864;SDS011;61000;48.120;11.548;2023-03-21T04:45:29;4.53;;;4.13;;
72864;SDS011;61000;48.120;11.548;2023-03-21T04:47:56;3.97;;;3.35;;
72864;SDS011;61000;48.120;11.548;2023-03-21T04:50:23;4.70;;;4.10;;
72864;SDS011;61000;48.120;11.548;2023-03-21T04:52:50;4.90;;;4.10;;
72864;SDS011;61000;48.120;11.548;2023-03-21T04:55:18;5.10;;;4.35;;
72864;SDS011;61000;48.120;11.548;2023-03-21T04:57:47;5.10;;;4.60;;
72864;SDS011;61000;48.120;11.548;2023-03-21T05:00:14;4.45;;;3.97;;
72864;SDS011;61000;48.120;11.548;2023-03-21T05:02:42;4.63;;;4.10;;
72864;SDS011;61000;48.120;11.548;2023-03-21T05:05:09;4.50;;;3.90;;
72864;SDS011;61000;48.120;11.548;2023-03-21T05:07:36;4.97;;;4.50;;
72864;SDS011;61000;48.120;11.548;2023-03-21T05:10:04;5.50;;;4.65;;
72864;SDS011;61000;48.120;11.548;2023-03-21T05:12:32;5.65;;;4.53;;
72864;SDS011;61000;48.120;11.548;2023-03-21T05:15:00;5.07;;;4.43;;
72864;SDS011;61000;48.120;11.548;2023-03-21T05:17:27;6.25;;;4.50;;
72864;SDS011;61000;48.120;11.548;2023-03-21T05:19:56;5.60;;;5.03;;
72864;SDS011;61000;48.120;11.548;2023-03-21T05:22:23;5.22;;;4.55;;
72864;SDS011;61000;48.120;11.548;2023-03-21T05:24:53;5.15;;;3.97;;
72864;SDS011;61000;48.120;11.548;2023-03-21T05:27:39;6.22;;;4.80;;
72864;SDS011;61000;48.120;11.548;2023-03-21T05:30:12;5.65;;;3.83;;
72864;SDS011;61000;48.120;11.548;2023-03-21T05:32:42;5.95;;;4.20;;
72864;SDS011;61000;48.120;11.548;2023-03-21T05:35:10;4.60;;;4.20;;
72864;SDS011;61000;48.120;11.548;2023-03-21T05:37:37;4.88;;;4.10;;
72864;SDS011;61000;48.120;11.548;2023-03-21T05:40:06;5.70;;;4.28;;
72864;SDS011;61000;48.120;11.548;2023-03-21T05:42:36;5.53;;;4.68;;
72864;SDS011;61000;48.120;11.548;2023-03-21T05:45:14;5.90;;;4.50;;
72864;SDS011;61000;48.120;11.548;2023-03-21T05:47:41;5.80;;;4.63;;
72864;SDS011;61000;48.120;11.548;2023-03-21T05:50:10;4.45;;;4.05;;
72864;SDS011;61000;48.120;11.548;2023-03-21T05:52:40;5.13;;;4.07;;
72864;SDS011;61000;48.120;11.548;2023-03-21T05:55:10;4.47;;;4.07;;
72864;SDS011;61000;48.120;11.548;2023-03-21T05:57:37;5.25;;;4.40;;
72864;SDS011;61000;48.120;11.548;2023-03-21T06:00:09;7.18;;;4.60;;
72864;SDS011;61000;48.120;11.548;2023-03-21T06:02:54;4.50;;;4.10;;
72864;SDS011;61000;48.120;11.548;2023-03-21T06:05:33;6.35;;;4.85;;
72864;SDS011;61000;48.120;11.548;2023-03-21T06:08:00;4.60;;;4.20;;
72864;SDS011;61000;48.120;11.548;2023-03-21T06:10:27;5.40;;;4.60;;
72864;SDS011;61000;48.120;11.548;2023-03-21T06:12:55;5.70;;;4.30;;
72864;SDS011;61000;48.120;11.548;2023-03-21T06:15:29;7.55;;;4.43;;
72864;SDS011;61000;48.120;11.548;2023-03-21T06:18:04;5.70;;;4.80;;
72864;SDS011;61000;48.120;11.548;2023-03-21T06:20:34;4.72;;;4.22;;
72864;SDS011;61000;48.120;11.548;2023-03-21T06:23:07;6.10;;;4.50;;
72864;SDS011;61000;48.120;11.548;2023-03-21T06:25:34;6.70;;;4.32;;
72864;SDS011;61000;48.120;11.548;2023-03-21T06:28:01;6.30;;;4.70;;
72864;SDS011;61000;48.120;11.548;2023-03-21T06:30:29;6.25;;;4.57;;
72864;SDS011;61000;48.120;11.548;2023-03-21T06:33:20;6.43;;;5.45;;
72864;SDS011;61000;48.120;11.548;2023-03-21T06:35:49;9.93;;;4.57;;
72864;SDS011;61000;48.120;11.548;2023-03-21T06:38:18;4.97;;;4.15;;
72864;SDS011;61000;48.120;11.548;2023-03-21T06:40:46;5.18;;;4.68;;
72864;SDS011;61000;48.120;11.548;2023-03-21T06:43:14;5.47;;;4.97;;
72864;SDS011;61000;48.120;11.548;2023-03-21T06:45:42;6.53;;;4.65;;
72864;SDS011;61000;48.120;11.548;2023-03-21T06:48:10;5.47;;;4.40;;
72864;SDS011;61000;48.120;11.548;2023-03-21T06:50:47;4.57;;;4.13;;
72864;SDS011;61000;48.120;11.548;2023-03-21T06:53:15;6.22;;;5.53;;
72864;SDS011;61000;48.120;11.548;2023-03-21T06:56:04;5.20;;;4.07;;
72864;SDS011;61000;48.120;11.548;2023-03-21T06:58:33;7.50;;;4.78;;
72864;SDS011;61000;48.120;11.548;2023-03-21T07:01:01;5.40;;;4.47;;
72864;SDS011;61000;48.120;11.548;2023-03-21T07:03:31;6.30;;;5.43;;
72864;SDS011;61000;48.120;11.548;2023-03-21T07:06:03;6.38;;;5.55;;
72864;SDS011;61000;48.120;11.548;2023-03-21T07:08:32;5.75;;;5.13;;
72864;SDS011;61000;48.120;11.548;2023-03-21T07:10:59;8.15;;;4.85;;
72864;SDS011;61000;48.120;11.548;2023-03-21T07:13:27;9.30;;;5.38;;
72864;SDS011;61000;48.120;11.548;2023-03-21T07:16:01;6.70;;;4.85;;
72864;SDS011;61000;48.120;11.548;2023-03-21T07:18:28;5.65;;;5.10;;
72864;SDS011;61000;48.120;11.548;2023-03-21T07:20:55;7.25;;;4.90;;
72864;SDS011;61000;48.120;11.548;2023-03-21T07:23:24;8.38;;;4.63;;
72864;SDS011;61000;48.120;11.548;2023-03-21T07:25:52;6.63;;;4.32;;
72864;SDS011;61000;48.120;11.548;2023-03-21T07:28:20;8.30;;;4.72;;
72864;SDS011;61000;48.120;11.548;2023-03-21T07:30:50;8.00;;;4.97;;
72864;SDS011;61000;48.120;11.548;2023-03-21T07:33:19;6.88;;;4.28;;
72864;SDS011;61000;48.120;11.548;2023-03-21T07:35:47;6.15;;;4.70;;
72864;SDS011;61000;48.120;11.548;2023-03-21T07:38:15;6.22;;;4.70;;
72864;SDS011;61000;48.120;11.548;2023-03-21T07:40:44;5.30;;;4.70;;
72864;SDS011;61000;48.120;11.548;2023-03-21T07:43:11;5.40;;;4.88;;
72864;SDS011;61000;48.120;11.548;2023-03-21T07:45:41;6.75;;;4.65;;
72864;SDS011;61000;48.120;11.548;2023-03-21T07:48:08;6.68;;;4.43;;
72864;SDS011;61000;48.120;11.548;2023-03-21T07:50:37;8.27;;;4.43;;
72864;SDS011;61000;48.120;11.548;2023-03-21T07:53:05;7.40;;;4.80;;
72864;SDS011;61000;48.120;11.548;2023-03-21T07:55:32;7.97;;;4.80;;
72864;SDS011;61000;48.120;11.548;2023-03-21T07:58:01;5.90;;;5.30;;
72864;SDS011;61000;48.120;11.548;2023-03-21T08:00:28;6.40;;;5.05;;
72864;SDS011;61000;48.120;11.548;2023-03-21T08:02:55;5.90;;;4.47;;
72864;SDS011;61000;48.120;11.548;2023-03-21T08:05:24;7.00;;;4.38;;
72864;SDS011;61000;48.120;11.548;2023-03-21T08:07:53;5.60;;;4.07;;
72864;SDS011;61000;48.120;11.548;2023-03-21T08:10:20;8.43;;;4.82;;
72864;SDS011;61000;48.120;11.548;2023-03-21T08:12:47;5.80;;;4.50;;
72864;SDS011;61000;48.120;11.548;2023-03-21T08:15:15;7.25;;;5.15;;
72864;SDS011;61000;48.120;11.548;2023-03-21T08:17:43;5.95;;;4.75;;
72864;SDS011;61000;48.120;11.548;2023-03-21T08:20:11;7.47;;;4.70;;
72864;SDS011;61000;48.120;11.548;2023-03-21T08:22:41;11.50;;;5.20;;
72864;SDS011;61000;48.120;11.548;2023-03-21T08:25:09;5.38;;;4.88;;
72864;SDS011;61000;48.120;11.548;2023-03-21T08:27:38;6.40;;;5.18;;
72864;SDS011;61000;48.120;11.548;2023-03-21T08:30:05;7.53;;;5.15;;
72864;SDS011;61000;48.120;11.548;2023-03-21T08:32:35;6.53;;;4.55;;
72864;SDS011;61000;48.120;11.548;2023-03-21T08:35:03;7.28;;;4.47;;
72864;SDS011;61000;48.120;11.548;2023-03-21T08:37:34;7.07;;;4.97;;
72864;SDS011;61000;48.120;11.548;2023-03-21T08:40:01;7.05;;;5.10;;
72864;SDS011;61000;48.120;11.548;2023-03-21T08:42:31;7.68;;;4.88;;
72864;SDS011;61000;48.120;11.548;2023-03-21T08:44:58;6.00;;;4.78;;
72864;SDS011;61000;48.120;11.548;2023-03-21T08:47:25;6.95;;;4.45;;
72864;SDS011;61000;48.120;11.548;2023-03-21T08:49:53;8.52;;;4.82;;
72864;SDS011;61000;48.120;11.548;2023-03-21T08:52:20;5.93;;;4.68;;
72864;SDS011;61000;48.120;11.548;2023-03-21T08:54:47;7.03;;;4.55;;
72864;SDS011;61000;48.120;11.548;2023-03-21T08:57:14;8.25;;;4.55;;
72864;SDS011;61000;48.120;11.548;2023-03-21T08:59:41;4.90;;;4.35;;
72864;SDS011;61000;48.120;11.548;2023-03-21T09:02:08;7.57;;;4.80;;
72864;SDS011;61000;48.120;11.548;2023-03-21T09:04:36;7.72;;;5.03;;
72864;SDS011;61000;48.120;11.548;2023-03-21T09:07:05;5.82;;;4.40;;
72864;SDS011;61000;48.120;11.548;2023-03-21T09:09:32;5.28;;;4.78;;
72864;SDS011;61000;48.120;11.548;2023-03-21T09:11:59;5.63;;;4.35;;
72864;SDS011;61000;48.120;11.548;2023-03-21T09:14:26;5.05;;;4.40;;
72864;SDS011;61000;48.120;11.548;2023-03-21T09:16:53;8.77;;;4.43;;
72864;SDS011;61000;48.120;11.548;2023-03-21T09:19:20;6.25;;;3.97;;
72864;SDS011;61000;48.120;11.548;2023-03-21T09:21:48;5.95;;;3.88;;
72864;SDS011;61000;48.120;11.548;2023-03-21T09:24:17;6.78;;;3.97;;
72864;SDS011;61000;48.120;11.548;2023-03-21T09:26:44;5.78;;;5.10;;
72864;SDS011;61000;48.120;11.548;2023-03-21T09:29:14;6.70;;;4.63;;
72864;SDS011;61000;48.120;11.548;2023-03-21T09:31:43;4.85;;;4.25;;
72864;SDS011;61000;48.120;11.548;2023-03-21T09:34:10;3.97;;;3.00;;
72864;SDS011;61000;48.120;11.548;2023-03-21T09:36:38;4.93;;;3.42;;
72864;SDS011;61000;48.120;11.548;2023-03-21T09:39:06;4.80;;;2.88;;
72864;SDS011;61000;48.120;11.548;2023-03-21T09:44:30;5.28;;;2.90;;
72864;SDS011;61000;48.120;11.548;2023-03-21T09:47:07;4.90;;;3.10;;
72864;SDS011;61000;48.120;11.548;2023-03-21T09:49:45;5.47;;;3.40;;
72864;SDS011;61000;48.120;11.548;2023-03-21T09:52:17;5.53;;;3.15;;
72864;SDS011;61000;48.120;11.548;2023-03-21T09:54:47;4.25;;;3.50;;
72864;SDS011;61000;48.120;11.548;2023-03-21T09:57:18;6.13;;;3.70;;
72864;SDS011;61000;48.120;11.548;2023-03-21T09:59:52;6.93;;;3.80;;
72864;SDS011;61000;48.120;11.548;2023-03-21T10:02:32;5.15;;;3.00;;
72864;SDS011;61000;48.120;11.548;2023-03-21T10:05:05;5.85;;;3.20;;
72864;SDS011;61000;48.120;11.548;2023-03-21T10:07:38;5.47;;;3.28;;
72864;SDS011;61000;48.120;11.548;2023-03-21T10:10:09;4.88;;;3.30;;
72864;SDS011;61000;48.120;11.548;2023-03-21T10:12:43;3.55;;;3.25;;
72864;SDS011;61000;48.120;11.548;2023-03-21T10:15:14;6.90;;;2.88;;
72864;SDS011;61000;48.120;11.548;2023-03-21T10:17:46;6.13;;;3.67;;
72864;SDS011;61000;48.120;11.548;2023-03-21T10:20:18;4.22;;;3.55;;
72864;SDS011;61000;48.120;11.548;2023-03-21T10:22:47;6.93;;;3.13;;
72864;SDS011;61000;48.120;11.548;2023-03-21T10:25:17;5.65;;;2.88;;
72864;SDS011;61000;48.120;11.548;2023-03-21T10:27:48;6.55;;;3.42;;
72864;SDS011;61000;48.120;11.548;2023-03-21T10:30:29;4.93;;;3.10;;
72864;SDS011;61000;48.120;11.548;2023-03-21T10:33:06;3.45;;;3.13;;
72864;SDS011;61000;48.120;11.548;2023-03-21T10:35:36;3.42;;;2.88;;
72864;SDS011;61000;48.120;11.548;2023-03-21T10:38:10;3.13;;;2.78;;
72864;SDS011;61000;48.120;11.548;2023-03-21T10:40:41;3.38;;;2.83;;
72864;SDS011;61000;48.120;11.548;2023-03-21T10:43:17;2.95;;;2.65;;
72864;SDS011;61000;48.120;11.548;2023-03-21T10:45:46;5.13;;;3.55;;
72864;SDS011;61000;48.120;11.548;2023-03-21T10:48:13;4.25;;;3.33;;
72864;SDS011;61000;48.120;11.548;2023-03-21T10:50:41;6.05;;;2.78;;
72864;SDS011;61000;48.120;11.548;2023-03-21T10:53:13;2.65;;;2.45;;
72864;SDS011;61000;48.120;11.548;2023-03-21T10:55:45;4.20;;;2.83;;
72864;SDS011;61000;48.120;11.548;2023-03-21T10:58:16;4.97;;;2.92;;
72864;SDS011;61000;48.120;11.548;2023-03-21T11:00:51;5.68;;;2.95;;
72864;SDS011;61000;48.120;11.548;2023-03-21T11:03:22;5.95;;;3.30;;
72864;SDS011;61000;48.120;11.548;2023-03-21T11:05:55;4.40;;;3.00;;
72864;SDS011;61000;48.120;11.548;2023-03-21T11:08:26;7.65;;;3.58;;
72864;SDS011;61000;48.120;11.548;2023-03-21T11:10:59;3.60;;;3.00;;
72864;SDS011;61000;48.120;11.548;2023-03-21T11:13:33;5.22;;;2.83;;
72864;SDS011;61000;48.120;11.548;2023-03-21T11:16:04;4.97;;;2.85;;
72864;SDS011;61000;48.120;11.548;2023-03-21T11:18:33;5.28;;;3.13;;
72864;SDS011;61000;48.120;11.548;2023-03-21T11:21:07;3.30;;;2.95;;
72864;SDS011;61000;48.120;11.548;2023-03-21T11:23:37;3.55;;;2.72;;
72864;SDS011;61000;48.120;11.548;2023-03-21T11:26:10;3.33;;;3.05;;
72864;SDS011;61000;48.120;11.548;2023-03-21T11:28:44;3.42;;;2.50;;
72864;SDS011;61000;48.120;11.548;2023-03-21T11:31:12;3.30;;;3.00;;
72864;SDS011;61000;48.120;11.548;2023-03-21T11:33:40;2.75;;;2.47;;
72864;SDS011;61000;48.120;11.548;2023-03-21T11:36:24;3.03;;;2.70;;
72864;SDS011;61000;48.120;11.548;2023-03-21T11:38:58;3.75;;;3.00;;
72864;SDS011;61000;48.120;11.548;2023-03-21T11:41:38;2.80;;;2.50;;
72864;SDS011;61000;48.120;11.548;2023-03-21T11:44:22;2.85;;;2.40;;
72864;SDS011;61000;48.120;11.548;2023-03-21T11:46:52;4.15;;;3.75;;
72864;SDS011;61000;48.120;11.548;2023-03-21T11:49:19;2.88;;;2.47;;
72864;SDS011;61000;48.120;11.548;2023-03-21T11:51:47;3.58;;;2.60;;
72864;SDS011;61000;48.120;11.548;2023-03-21T11:54:21;3.25;;;2.67;;
72864;SDS011;61000;48.120;11.548;2023-03-21T11:56:58;3.63;;;2.40;;
72864;SDS011;61000;48.120;11.548;2023-03-21T11:59:35;2.88;;;2.67;;
72864;SDS011;61000;48.120;11.548;2023-03-21T12:02:14;4.43;;;2.65;;
72864;SDS011;61000;48.120;11.548;2023-03-21T12:04:54;6.00;;;2.75;;
72864;SDS011;61000;48.120;11.548;2023-03-21T12:07:38;4.10;;;2.95;;
72864;SDS011;61000;48.120;11.548;2023-03-21T12:10:23;2.70;;;2.50;;
72864;SDS011;61000;48.120;11.548;2023-03-21T12:13:12;2.90;;;2.45;;
72864;SDS011;61000;48.120;11.548;2023-03-21T12:15:55;3.38;;;2.50;;
72864;SDS011;61000;48.120;11.548;2023-03-21T12:18:42;4.30;;;2.33;;
72864;SDS011;61000;48.120;11.548;2023-03-21T12:21:21;2.92;;;2.58;;
72864;SDS011;61000;48.120;11.548;2023-03-21T12:23:57;2.95;;;2.40;;
72864;SDS011;61000;48.120;11.548;2023-03-21T12:26:29;3.78;;;2.22;;
72864;SDS011;61000;48.120;11.548;2023-03-21T12:29:01;3.13;;;2.60;;
72864;SDS011;61000;48.120;11.548;2023-03-21T12:31:46;4.22;;;2.05;;
72864;SDS011;61000;48.120;11.548;2023-03-21T12:34:26;3.25;;;2.13;;
72864;SDS011;61000;48.120;11.548;2023-03-21T12:37:07;2.25;;;1.80;;
72864;SDS011;61000;48.120;11.548;2023-03-21T12:39:42;2.33;;;1.73;;
72864;SDS011;61000;48.120;11.548;2023-03-21T12:42:21;4.05;;;2.08;;
72864;SDS011;61000;48.120;11.548;2023-03-21T12:45:05;2.63;;;1.90;;
72864;SDS011;61000;48.120;11.548;2023-03-21T12:47:38;1.88;;;1.77;;
72864;SDS011;61000;48.120;11.548;2023-03-21T12:50:11;2.40;;;1.58;;
72864;SDS011;61000;48.120;11.548;2023-03-21T12:52:42;1.30;;;1.20;;
72864;SDS011;61000;48.120;11.548;2023-03-21T12:55:13;2.25;;;1.70;;
72864;SDS011;61000;48.120;11.548;2023-03-21T12:57:46;1.80;;;1.70;;
72864;SDS011;61000;48.120;11.548;2023-03-21T13:00:16;1.58;;;1.33;;
72864;SDS011;61000;48.120;11.548;2023-03-21T13:02:49;1.50;;;1.40;;
72864;SDS011;61000;48.120;11.548;2023-03-21T13:05:21;1.48;;;1.38;;
72864;SDS011;61000;48.120;11.548;2023-03-21T13:07:55;1.55;;;1.42;;
72864;SDS011;61000;48.120;11.548;2023-03-21T13:10:26;1.65;;;1.55;;
72864;SDS011;61000;48.120;11.548;2023-03-21T13:12:59;2.22;;;1.70;;
72864;SDS011;61000;48.120;11.548;2023-03-21T13:15:48;1.67;;;1.58;;
72864;SDS011;61000;48.120;11.548;2023-03-21T13:18:26;3.90;;;2.28;;
72864;SDS011;61000;48.120;11.548;2023-03-21T13:20:59;2.55;;;2.00;;
72864;SDS011;61000;48.120;11.548;2023-03-21T13:23:32;3.22;;;2.40;;
72864;SDS011;61000;48.120;11.548;2023-03-21T13:26:00;2.88;;;2.30;;
72864;SDS011;61000;48.120;11.548;2023-03-21T13:28:29;4.20;;;2.47;;
72864;SDS011;61000;48.120;11.548;2023-03-21T13:31:14;3.40;;;2.17;;
72864;SDS011;61000;48.120;11.548;2023-03-21T13:33:45;4.70;;;2.72;;
72864;SDS011;61000;48.120;11.548;2023-03-21T13:36:14;2.55;;;2.20;;
72864;SDS011;61000;48.120;11.548;2023-03-21T13:38:43;7.60;;;2.50;;
72864;SDS011;61000;48.120;11.548;2023-03-21T13:41:16;2.80;;;2.30;;
72864;SDS011;61000;48.120;11.548;2023-03-21T13:43:50;3.03;;;2.05;;
72864;SDS011;61000;48.120;11.548;2023-03-21T13:46:33;3.03;;;2.38;;
72864;SDS011;61000;48.120;11.548;2023-03-21T13:49:12;2.67;;;2.20;;
72864;SDS011;61000;48.120;11.548;2023-03-21T13:51:41;3.50;;;1.88;;
72864;SDS011;61000;48.120;11.548;2023-03-21T13:54:25;4.70;;;2.20;;
72864;SDS011;61000;48.120;11.548;2023-03-21T13:56:55;3.35;;;3.00;;
72864;SDS011;61000;48.120;11.548;2023-03-21T13:59:38;2.97;;;2.58;;
72864;SDS011;61000;48.120;11.548;2023-03-21T14:02:20;3.42;;;2.33;;
72864;SDS011;61000;48.120;11.548;2023-03-21T14:04:55;3.80;;;3.35;;
72864;SDS011;61000;48.120;11.548;2023-03-21T14:07:27;3.47;;;2.83;;
72864;SDS011;61000;48.120;11.548;2023-03-21T14:09:56;3.20;;;2.90;;
72864;SDS011;61000;48.120;11.548;2023-03-21T14:12:27;3.00;;;2.78;;
72864;SDS011;61000;48.120;11.548;2023-03-21T14:14:59;7.75;;;5.20;;
72864;SDS011;61000;48.120;11.548;2023-03-21T14:17:29;10.20;;;5.07;;
72864;SDS011;61000;48.120;11.548;2023-03-21T14:19:59;6.43;;;3.58;;
72864;SDS011;61000;48.120;11.548;2023-03-21T14:22:35;3.58;;;3.20;;
72864;SDS011;61000;48.120;11.548;2023-03-21T14:25:03;2.90;;;2.70;;
72864;SDS011;61000;48.120;11.548;2023-03-21T14:27:33;3.30;;;3.00;;
72864;SDS011;61000;48.120;11.548;2023-03-21T14:30:02;2.40;;;2.15;;
72864;SDS011;61000;48.120;11.548;2023-03-21T14:32:30;2.60;;;2.40;;
72864;SDS011;61000;48.120;11.548;2023-03-21T14:34:59;2.70;;;2.03;;
72864;SDS011;61000;48.120;11.548;2023-03-21T14:37:27;5.60;;;2.10;;
72864;SDS011;61000;48.120;11.548;2023-03-21T14:39:56;2.63;;;2.08;;
72864;SDS011;61000;48.120;11.548;2023-03-21T14:42:25;2.92;;;2.05;;
72864;SDS011;61000;48.120;11.548;2023-03-21T14:44:52;2.35;;;2.15;;
72864;SDS011;61000;48.120;11.548;2023-03-21T14:47:25;5.43;;;2.33;;
72864;SDS011;61000;48.120;11.548;2023-03-21T14:49:53;4.70;;;2.38;;
72864;SDS011;61000;48.120;11.548;2023-03-21T14:52:23;2.60;;;2.40;;
72864;SDS011;61000;48.120;11.548;2023-03-21T14:54:51;3.33;;;2.28;;
72864;SDS011;61000;48.120;11.548;2023-03-21T14:57:19;4.10;;;2.30;;
72864;SDS011;61000;48.120;11.548;2023-03-21T14:59:47;2.33;;;2.13;;
72864;SDS011;61000;48.120;11.548;2023-03-21T15:02:17;2.53;;;2.30;;
72864;SDS011;61000;48.120;11.548;2023-03-21T15:04:48;3.67;;;2.10;;